Weather at Tata Airport

Public forecast

Using degrees Celsius for public forecast. Weather courtesy of forecast.io.

Current aviation weather report (METAR) for Tata Airport

Report is more than 6 hours old.

Retrieved 2020/08/24 18:00 UTC (3 months ago):

GULB 241800Z VRB02KT 9999 BKN020 23/20 Q1008 NOSIG

Closest aviation forecast (TAF) to Tata Airport

Forecast is more than 12 hours old.

Closest forecast is Conakry International Airport, 131.0 nm (242.5 km) SW. Retrieved 2020/11/23 18:00 UTC (2 days ago):

TAF GUCY 231700Z 2318/2424 29008KT 9999 SCT015 SCT120 TEMPO2321/2401 CAVOK BECMG 2404/2408 VRB02KT 4000 BR FEW015 SCT110